Thursday, December 18, 2014

  Over 45,111,151 pages visited!

GMT:
23:25
PACIFIC:
4:25:55 PM
MOUNTAIN:
5:25:55 PM

CENTRAL:
6:25:55 PM

EASTERN:
7:25:55 PM
ATLANTIC:
8:25:55 PM
NEWFOUNDLAND:
8:55:55 PM
 

 


Watches/Warnings
Current Conditions
Radar/Satellite
Lightning Images


Current Weather Conditions For TORONTO PEARSON,ON

 


Overcast
 

Temperature: -3C / 27F
Dew Point: -6C / 21F
Humidity: 80 %
Pressure: 1020.5 mbs (30.13 inches)
Visibility: 24.1 kms (15 SM)
Wind Direction: NNW (340)
Wind Speed: 22.2 Km/h (13.8 MPH)
Max Wind Gust: No Gusts
Humidex: N/A
WindChill: -9C
    

Observation Information

Date/Time: Thursday, December 18, 2014 @ 00:00Z
Local Time:
Metar Coded: CYYZ 190000Z 34012KT 15SM OVC020 M03/M06 A3011 RMK SC8 SLP205

 

 

                   1997-2014 The Ontario Weather Page